sensor_id;sensor_type;location;lat;lon;timestamp;temperature;humidity
6164;DHT22;3114;48.362;10.994;2023-06-22T00:00:49;21.80;99.90
6164;DHT22;3114;48.362;10.994;2023-06-22T00:03:18;21.70;99.90
6164;DHT22;3114;48.362;10.994;2023-06-22T00:05:45;21.80;99.90
6164;DHT22;3114;48.362;10.994;2023-06-22T00:08:12;21.90;99.90
6164;DHT22;3114;48.362;10.994;2023-06-22T00:10:39;21.90;99.90
6164;DHT22;3114;48.362;10.994;2023-06-22T00:13:08;21.90;99.90
6164;DHT22;3114;48.362;10.994;2023-06-22T00:15:36;21.90;99.90
6164;DHT22;3114;48.362;10.994;2023-06-22T00:18:04;21.90;99.90
6164;DHT22;3114;48.362;10.994;2023-06-22T00:20:30;22.00;99.90
6164;DHT22;3114;48.362;10.994;2023-06-22T00:22:59;22.00;99.90
6164;DHT22;3114;48.362;10.994;2023-06-22T00:25:26;21.90;99.90
6164;DHT22;3114;48.362;10.994;2023-06-22T00:27:53;21.90;99.90
6164;DHT22;3114;48.362;10.994;2023-06-22T00:30:21;21.90;99.90
6164;DHT22;3114;48.362;10.994;2023-06-22T00:32:48;21.80;99.90
6164;DHT22;3114;48.362;10.994;2023-06-22T00:35:15;21.80;99.90
6164;DHT22;3114;48.362;10.994;2023-06-22T00:37:42;21.70;99.90
6164;DHT22;3114;48.362;10.994;2023-06-22T00:40:09;21.80;99.90
6164;DHT22;3114;48.362;10.994;2023-06-22T00:42:37;21.70;99.90
6164;DHT22;3114;48.362;10.994;2023-06-22T00:45:06;21.70;99.90
6164;DHT22;3114;48.362;10.994;2023-06-22T00:47:35;21.70;99.90
6164;DHT22;3114;48.362;10.994;2023-06-22T00:50:04;21.80;99.90
6164;DHT22;3114;48.362;10.994;2023-06-22T00:52:32;21.80;99.90
6164;DHT22;3114;48.362;10.994;2023-06-22T00:55:02;21.70;99.90
6164;DHT22;3114;48.362;10.994;2023-06-22T00:57:29;21.70;99.90
6164;DHT22;3114;48.362;10.994;2023-06-22T00:59:57;21.60;99.90
6164;DHT22;3114;48.362;10.994;2023-06-22T01:02:24;21.60;99.90
6164;DHT22;3114;48.362;10.994;2023-06-22T01:04:52;21.60;99.90
6164;DHT22;3114;48.362;10.994;2023-06-22T01:07:25;21.50;99.90
6164;DHT22;3114;48.362;10.994;2023-06-22T01:09:59;21.50;99.90
6164;DHT22;3114;48.362;10.994;2023-06-22T01:12:32;21.40;99.90
6164;DHT22;3114;48.362;10.994;2023-06-22T01:15:07;21.40;99.90
6164;DHT22;3114;48.362;10.994;2023-06-22T01:17:35;21.40;99.90
6164;DHT22;3114;48.362;10.994;2023-06-22T01:20:06;21.40;99.90
6164;DHT22;3114;48.362;10.994;2023-06-22T01:22:48;21.40;99.90
6164;DHT22;3114;48.362;10.994;2023-06-22T01:25:20;21.30;99.90
6164;DHT22;3114;48.362;10.994;2023-06-22T01:27:56;21.30;99.90
6164;DHT22;3114;48.362;10.994;2023-06-22T01:30:28;21.40;99.90
6164;DHT22;3114;48.362;10.994;2023-06-22T01:32:57;21.40;99.90
6164;DHT22;3114;48.362;10.994;2023-06-22T01:35:25;21.30;99.90
6164;DHT22;3114;48.362;10.994;2023-06-22T01:37:53;21.40;99.90
6164;DHT22;3114;48.362;10.994;2023-06-22T01:40:21;21.40;99.90
6164;DHT22;3114;48.362;10.994;2023-06-22T01:42:48;21.40;99.90
6164;DHT22;3114;48.362;10.994;2023-06-22T01:45:17;21.30;99.90
6164;DHT22;3114;48.362;10.994;2023-06-22T01:47:47;21.40;99.90
6164;DHT22;3114;48.362;10.994;2023-06-22T01:50:14;21.30;99.90
6164;DHT22;3114;48.362;10.994;2023-06-22T01:52:41;21.20;99.90
6164;DHT22;3114;48.362;10.994;2023-06-22T01:55:08;21.20;99.90
6164;DHT22;3114;48.362;10.994;2023-06-22T01:57:35;21.20;99.90
6164;DHT22;3114;48.362;10.994;2023-06-22T02:00:04;21.30;99.90
6164;DHT22;3114;48.362;10.994;2023-06-22T02:02:36;21.30;99.90
6164;DHT22;3114;48.362;10.994;2023-06-22T02:05:08;21.30;99.90
6164;DHT22;3114;48.362;10.994;2023-06-22T02:07:41;21.30;99.90
6164;DHT22;3114;48.362;10.994;2023-06-22T02:10:12;21.30;99.90
6164;DHT22;3114;48.362;10.994;2023-06-22T02:12:42;21.30;99.90
6164;DHT22;3114;48.362;10.994;2023-06-22T02:15:10;21.30;99.90
6164;DHT22;3114;48.362;10.994;2023-06-22T02:17:38;21.20;99.90
6164;DHT22;3114;48.362;10.994;2023-06-22T02:20:12;21.20;99.90
6164;DHT22;3114;48.362;10.994;2023-06-22T02:22:39;21.20;99.90
6164;DHT22;3114;48.362;10.994;2023-06-22T02:25:06;21.30;99.90
6164;DHT22;3114;48.362;10.994;2023-06-22T02:27:33;21.20;99.90
6164;DHT22;3114;48.362;10.994;2023-06-22T02:30:00;21.10;99.90
6164;DHT22;3114;48.362;10.994;2023-06-22T02:32:28;21.10;99.90
6164;DHT22;3114;48.362;10.994;2023-06-22T02:34:54;21.00;99.90
6164;DHT22;3114;48.362;10.994;2023-06-22T02:37:23;21.00;99.90
6164;DHT22;3114;48.362;10.994;2023-06-22T02:39:50;21.00;99.90
6164;DHT22;3114;48.362;10.994;2023-06-22T02:42:17;20.90;99.90
6164;DHT22;3114;48.362;10.994;2023-06-22T02:44:46;20.80;99.90
6164;DHT22;3114;48.362;10.994;2023-06-22T02:47:13;20.90;99.90
6164;DHT22;3114;48.362;10.994;2023-06-22T02:49:40;20.90;99.90
6164;DHT22;3114;48.362;10.994;2023-06-22T02:52:07;20.90;99.90
6164;DHT22;3114;48.362;10.994;2023-06-22T02:54:35;20.90;99.90
6164;DHT22;3114;48.362;10.994;2023-06-22T02:57:03;20.90;99.90
6164;DHT22;3114;48.362;10.994;2023-06-22T02:59:33;20.80;99.90
6164;DHT22;3114;48.362;10.994;2023-06-22T03:01:59;20.70;99.90
6164;DHT22;3114;48.362;10.994;2023-06-22T03:04:28;20.70;99.90
6164;DHT22;3114;48.362;10.994;2023-06-22T03:06:56;20.70;99.90
6164;DHT22;3114;48.362;10.994;2023-06-22T03:09:26;20.80;99.90
6164;DHT22;3114;48.362;10.994;2023-06-22T03:11:55;20.80;99.90
6164;DHT22;3114;48.362;10.994;2023-06-22T03:14:22;20.80;99.90
6164;DHT22;3114;48.362;10.994;2023-06-22T03:16:49;20.70;99.90
6164;DHT22;3114;48.362;10.994;2023-06-22T03:19:16;20.80;99.90
6164;DHT22;3114;48.362;10.994;2023-06-22T03:21:43;20.70;99.90
6164;DHT22;3114;48.362;10.994;2023-06-22T03:24:09;20.70;99.90
6164;DHT22;3114;48.362;10.994;2023-06-22T03:26:36;20.60;99.90
6164;DHT22;3114;48.362;10.994;2023-06-22T03:29:05;20.60;99.90
6164;DHT22;3114;48.362;10.994;2023-06-22T03:31:31;20.60;99.90
6164;DHT22;3114;48.362;10.994;2023-06-22T03:33:58;20.50;99.90
6164;DHT22;3114;48.362;10.994;2023-06-22T03:36:25;20.50;99.90
6164;DHT22;3114;48.362;10.994;2023-06-22T03:38:52;20.60;99.90
6164;DHT22;3114;48.362;10.994;2023-06-22T03:41:19;20.70;99.90
6164;DHT22;3114;48.362;10.994;2023-06-22T03:43:46;20.70;99.90
6164;DHT22;3114;48.362;10.994;2023-06-22T03:46:14;20.60;99.90
6164;DHT22;3114;48.362;10.994;2023-06-22T03:48:41;20.70;99.90
6164;DHT22;3114;48.362;10.994;2023-06-22T03:51:08;20.60;99.90
6164;DHT22;3114;48.362;10.994;2023-06-22T03:53:35;20.70;99.90
6164;DHT22;3114;48.362;10.994;2023-06-22T03:56:02;20.70;99.90
6164;DHT22;3114;48.362;10.994;2023-06-22T03:58:29;20.70;99.90
6164;DHT22;3114;48.362;10.994;2023-06-22T04:00:58;20.60;99.90
6164;DHT22;3114;48.362;10.994;2023-06-22T04:03:27;20.60;99.90
6164;DHT22;3114;48.362;10.994;2023-06-22T04:05:54;20.70;99.90
6164;DHT22;3114;48.362;10.994;2023-06-22T04:08:21;20.80;99.90
6164;DHT22;3114;48.362;10.994;2023-06-22T04:10:48;20.70;99.90
6164;DHT22;3114;48.362;10.994;2023-06-22T04:13:15;20.80;99.90
6164;DHT22;3114;48.362;10.994;2023-06-22T04:15:42;20.80;99.90
6164;DHT22;3114;48.362;10.994;2023-06-22T04:18:09;20.80;99.90
6164;DHT22;3114;48.362;10.994;2023-06-22T04:20:37;20.90;99.90
6164;DHT22;3114;48.362;10.994;2023-06-22T04:23:04;20.80;99.90
6164;DHT22;3114;48.362;10.994;2023-06-22T04:25:30;20.80;99.90
6164;DHT22;3114;48.362;10.994;2023-06-22T04:27:57;20.90;99.90
6164;DHT22;3114;48.362;10.994;2023-06-22T04:30:24;20.90;99.90
6164;DHT22;3114;48.362;10.994;2023-06-22T04:32:51;20.80;99.90
6164;DHT22;3114;48.362;10.994;2023-06-22T04:35:23;20.90;99.90
6164;DHT22;3114;48.362;10.994;2023-06-22T04:37:53;20.90;99.90
6164;DHT22;3114;48.362;10.994;2023-06-22T04:40:21;20.90;99.90
6164;DHT22;3114;48.362;10.994;2023-06-22T04:42:48;21.00;99.90
6164;DHT22;3114;48.362;10.994;2023-06-22T04:45:19;21.00;99.90
6164;DHT22;3114;48.362;10.994;2023-06-22T04:47:47;21.00;99.90
6164;DHT22;3114;48.362;10.994;2023-06-22T04:50:14;21.10;99.90
6164;DHT22;3114;48.362;10.994;2023-06-22T04:52:40;21.10;99.90
6164;DHT22;3114;48.362;10.994;2023-06-22T04:55:10;21.10;99.90
6164;DHT22;3114;48.362;10.994;2023-06-22T04:57:37;21.10;99.90
6164;DHT22;3114;48.362;10.994;2023-06-22T05:00:06;21.10;99.90
6164;DHT22;3114;48.362;10.994;2023-06-22T05:02:42;21.10;99.90
6164;DHT22;3114;48.362;10.994;2023-06-22T05:05:10;21.00;99.90
6164;DHT22;3114;48.362;10.994;2023-06-22T05:07:39;21.00;99.90
6164;DHT22;3114;48.362;10.994;2023-06-22T05:10:10;21.10;99.90
6164;DHT22;3114;48.362;10.994;2023-06-22T05:12:39;21.10;99.90
6164;DHT22;3114;48.362;10.994;2023-06-22T05:15:07;21.10;99.90
6164;DHT22;3114;48.362;10.994;2023-06-22T05:17:34;21.10;99.90
6164;DHT22;3114;48.362;10.994;2023-06-22T05:20:02;21.20;99.90
6164;DHT22;3114;48.362;10.994;2023-06-22T05:22:32;21.20;99.90
6164;DHT22;3114;48.362;10.994;2023-06-22T05:24:58;21.30;99.90
6164;DHT22;3114;48.362;10.994;2023-06-22T05:27:27;21.50;99.90
6164;DHT22;3114;48.362;10.994;2023-06-22T05:29:54;21.30;99.90
6164;DHT22;3114;48.362;10.994;2023-06-22T05:32:21;21.40;99.90
6164;DHT22;3114;48.362;10.994;2023-06-22T05:34:47;21.40;99.90
6164;DHT22;3114;48.362;10.994;2023-06-22T05:37:14;21.40;99.90
6164;DHT22;3114;48.362;10.994;2023-06-22T05:39:42;21.60;99.90
6164;DHT22;3114;48.362;10.994;2023-06-22T05:42:09;21.70;99.90
6164;DHT22;3114;48.362;10.994;2023-06-22T05:44:37;21.70;99.90
6164;DHT22;3114;48.362;10.994;2023-06-22T05:47:06;21.70;99.90
6164;DHT22;3114;48.362;10.994;2023-06-22T05:49:33;21.70;99.90
6164;DHT22;3114;48.362;10.994;2023-06-22T05:52:00;21.80;99.90
6164;DHT22;3114;48.362;10.994;2023-06-22T05:54:29;21.90;99.90
6164;DHT22;3114;48.362;10.994;2023-06-22T05:56:57;21.90;99.90
6164;DHT22;3114;48.362;10.994;2023-06-22T05:59:25;21.80;99.90
6164;DHT22;3114;48.362;10.994;2023-06-22T06:01:53;21.70;99.90
6164;DHT22;3114;48.362;10.994;2023-06-22T06:04:20;21.70;99.90
6164;DHT22;3114;48.362;10.994;2023-06-22T06:06:47;21.70;99.90
6164;DHT22;3114;48.362;10.994;2023-06-22T06:09:14;21.70;99.90
6164;DHT22;3114;48.362;10.994;2023-06-22T06:11:41;21.80;99.90
6164;DHT22;3114;48.362;10.994;2023-06-22T06:14:07;21.80;99.90
6164;DHT22;3114;48.362;10.994;2023-06-22T06:16:34;21.80;99.90
6164;DHT22;3114;48.362;10.994;2023-06-22T06:19:03;21.90;99.90
6164;DHT22;3114;48.362;10.994;2023-06-22T06:21:29;21.90;99.90
6164;DHT22;3114;48.362;10.994;2023-06-22T06:23:56;21.90;99.90
6164;DHT22;3114;48.362;10.994;2023-06-22T06:26:24;22.00;99.90
6164;DHT22;3114;48.362;10.994;2023-06-22T06:28:55;22.10;99.90
6164;DHT22;3114;48.362;10.994;2023-06-22T06:31:22;22.10;99.90
6164;DHT22;3114;48.362;10.994;2023-06-22T06:33:49;22.10;99.90
6164;DHT22;3114;48.362;10.994;2023-06-22T06:36:17;22.20;99.90
6164;DHT22;3114;48.362;10.994;2023-06-22T06:38:44;22.20;99.90
6164;DHT22;3114;48.362;10.994;2023-06-22T06:41:12;22.20;99.90
6164;DHT22;3114;48.362;10.994;2023-06-22T06:43:39;22.30;99.90
6164;DHT22;3114;48.362;10.994;2023-06-22T06:46:08;22.40;99.90
6164;DHT22;3114;48.362;10.994;2023-06-22T06:48:34;22.40;99.90
6164;DHT22;3114;48.362;10.994;2023-06-22T06:51:02;22.50;99.90
6164;DHT22;3114;48.362;10.994;2023-06-22T06:53:30;22.40;99.90
6164;DHT22;3114;48.362;10.994;2023-06-22T06:55:57;22.50;99.90
6164;DHT22;3114;48.362;10.994;2023-06-22T06:58:24;22.60;99.90
6164;DHT22;3114;48.362;10.994;2023-06-22T07:00:51;22.60;99.90
6164;DHT22;3114;48.362;10.994;2023-06-22T07:03:17;22.60;99.90
6164;DHT22;3114;48.362;10.994;2023-06-22T07:05:44;22.60;99.90
6164;DHT22;3114;48.362;10.994;2023-06-22T07:08:11;22.70;99.90
6164;DHT22;3114;48.362;10.994;2023-06-22T07:10:39;22.70;99.90
6164;DHT22;3114;48.362;10.994;2023-06-22T07:13:06;22.80;99.90
6164;DHT22;3114;48.362;10.994;2023-06-22T07:15:33;22.80;99.90
6164;DHT22;3114;48.362;10.994;2023-06-22T07:18:00;22.80;99.90
6164;DHT22;3114;48.362;10.994;2023-06-22T07:20:27;22.80;99.90
6164;DHT22;3114;48.362;10.994;2023-06-22T07:22:54;22.90;99.90
6164;DHT22;3114;48.362;10.994;2023-06-22T07:25:21;22.90;99.90
6164;DHT22;3114;48.362;10.994;2023-06-22T07:27:59;22.90;99.90
6164;DHT22;3114;48.362;10.994;2023-06-22T07:30:27;23.00;99.90
6164;DHT22;3114;48.362;10.994;2023-06-22T07:32:54;23.00;99.90
6164;DHT22;3114;48.362;10.994;2023-06-22T07:35:21;23.00;99.90
6164;DHT22;3114;48.362;10.994;2023-06-22T07:37:48;23.00;99.90
6164;DHT22;3114;48.362;10.994;2023-06-22T07:40:15;23.10;99.90
6164;DHT22;3114;48.362;10.994;2023-06-22T07:42:42;23.00;99.90
6164;DHT22;3114;48.362;10.994;2023-06-22T07:45:10;23.20;99.90
6164;DHT22;3114;48.362;10.994;2023-06-22T07:47:37;23.20;99.90
6164;DHT22;3114;48.362;10.994;2023-06-22T07:50:05;23.20;99.90
6164;DHT22;3114;48.362;10.994;2023-06-22T07:52:32;23.20;99.90
6164;DHT22;3114;48.362;10.994;2023-06-22T07:54:59;23.30;99.90
6164;DHT22;3114;48.362;10.994;2023-06-22T07:57:26;23.40;99.90
6164;DHT22;3114;48.362;10.994;2023-06-22T07:59:59;23.40;99.90
6164;DHT22;3114;48.362;10.994;2023-06-22T08:02:27;23.40;99.90
6164;DHT22;3114;48.362;10.994;2023-06-22T08:04:54;23.40;99.90
6164;DHT22;3114;48.362;10.994;2023-06-22T08:07:21;23.50;99.90
6164;DHT22;3114;48.362;10.994;2023-06-22T08:09:48;23.70;99.90
6164;DHT22;3114;48.362;10.994;2023-06-22T08:12:15;23.70;99.90
6164;DHT22;3114;48.362;10.994;2023-06-22T08:14:43;23.70;99.90
6164;DHT22;3114;48.362;10.994;2023-06-22T08:17:11;23.80;99.90
6164;DHT22;3114;48.362;10.994;2023-06-22T08:19:40;23.90;99.90
6164;DHT22;3114;48.362;10.994;2023-06-22T08:22:07;24.00;99.90
6164;DHT22;3114;48.362;10.994;2023-06-22T08:24:34;24.00;99.90
6164;DHT22;3114;48.362;10.994;2023-06-22T08:27:01;24.10;99.90
6164;DHT22;3114;48.362;10.994;2023-06-22T08:29:28;24.10;99.90
6164;DHT22;3114;48.362;10.994;2023-06-22T08:31:54;24.10;99.90
6164;DHT22;3114;48.362;10.994;2023-06-22T08:34:21;24.10;99.90
6164;DHT22;3114;48.362;10.994;2023-06-22T08:36:52;24.20;99.90
6164;DHT22;3114;48.362;10.994;2023-06-22T08:39:19;24.20;99.90
6164;DHT22;3114;48.362;10.994;2023-06-22T08:41:46;24.20;99.90
6164;DHT22;3114;48.362;10.994;2023-06-22T08:44:13;24.20;99.90
6164;DHT22;3114;48.362;10.994;2023-06-22T08:46:40;24.30;99.90
6164;DHT22;3114;48.362;10.994;2023-06-22T08:49:07;24.40;99.90
6164;DHT22;3114;48.362;10.994;2023-06-22T08:51:35;24.40;99.90
6164;DHT22;3114;48.362;10.994;2023-06-22T08:54:04;24.40;99.90
6164;DHT22;3114;48.362;10.994;2023-06-22T08:56:31;24.40;99.90
6164;DHT22;3114;48.362;10.994;2023-06-22T08:58:58;24.60;99.90
6164;DHT22;3114;48.362;10.994;2023-06-22T09:01:25;24.50;99.90
6164;DHT22;3114;48.362;10.994;2023-06-22T09:03:52;24.60;99.90
6164;DHT22;3114;48.362;10.994;2023-06-22T09:06:23;24.60;99.90
6164;DHT22;3114;48.362;10.994;2023-06-22T09:08:50;24.60;99.90
6164;DHT22;3114;48.362;10.994;2023-06-22T09:11:18;24.70;99.90
6164;DHT22;3114;48.362;10.994;2023-06-22T09:13:52;24.40;99.90
6164;DHT22;3114;48.362;10.994;2023-06-22T09:16:19;24.80;99.90
6164;DHT22;3114;48.362;10.994;2023-06-22T09:18:47;24.80;99.90
6164;DHT22;3114;48.362;10.994;2023-06-22T09:21:14;24.90;99.90
6164;DHT22;3114;48.362;10.994;2023-06-22T09:23:41;24.90;99.90
6164;DHT22;3114;48.362;10.994;2023-06-22T09:26:09;25.00;99.90
6164;DHT22;3114;48.362;10.994;2023-06-22T09:28:38;25.00;99.90
6164;DHT22;3114;48.362;10.994;2023-06-22T09:31:04;25.10;99.90
6164;DHT22;3114;48.362;10.994;2023-06-22T09:33:32;25.20;99.90
6164;DHT22;3114;48.362;10.994;2023-06-22T09:35:59;25.30;99.90
6164;DHT22;3114;48.362;10.994;2023-06-22T09:38:26;25.40;99.90
6164;DHT22;3114;48.362;10.994;2023-06-22T09:40:52;25.50;99.90
6164;DHT22;3114;48.362;10.994;2023-06-22T09:43:19;25.50;99.90
6164;DHT22;3114;48.362;10.994;2023-06-22T09:45:48;25.60;99.90
6164;DHT22;3114;48.362;10.994;2023-06-22T09:48:14;25.70;99.90
6164;DHT22;3114;48.362;10.994;2023-06-22T09:50:41;25.70;99.90
6164;DHT22;3114;48.362;10.994;2023-06-22T09:53:08;25.70;99.90
6164;DHT22;3114;48.362;10.994;2023-06-22T09:55:35;25.70;99.90
6164;DHT22;3114;48.362;10.994;2023-06-22T09:58:02;25.80;99.90
6164;DHT22;3114;48.362;10.994;2023-06-22T10:00:29;25.80;99.90
6164;DHT22;3114;48.362;10.994;2023-06-22T10:02:57;25.80;99.90
6164;DHT22;3114;48.362;10.994;2023-06-22T10:05:24;25.80;99.90
6164;DHT22;3114;48.362;10.994;2023-06-22T10:07:51;26.00;99.90
6164;DHT22;3114;48.362;10.994;2023-06-22T10:10:18;26.10;99.90
6164;DHT22;3114;48.362;10.994;2023-06-22T10:12:47;26.10;99.90
6164;DHT22;3114;48.362;10.994;2023-06-22T10:15:14;26.30;99.90
6164;DHT22;3114;48.362;10.994;2023-06-22T10:17:41;26.40;99.90
6164;DHT22;3114;48.362;10.994;2023-06-22T10:20:10;26.80;99.90
6164;DHT22;3114;48.362;10.994;2023-06-22T10:22:38;27.10;99.90
6164;DHT22;3114;48.362;10.994;2023-06-22T10:25:06;27.40;99.90
6164;DHT22;3114;48.362;10.994;2023-06-22T10:27:34;27.50;99.90
6164;DHT22;3114;48.362;10.994;2023-06-22T10:30:00;27.40;99.90
6164;DHT22;3114;48.362;10.994;2023-06-22T10:32:27;27.40;99.90
6164;DHT22;3114;48.362;10.994;2023-06-22T10:34:54;27.30;99.90
6164;DHT22;3114;48.362;10.994;2023-06-22T10:37:23;27.30;99.90
6164;DHT22;3114;48.362;10.994;2023-06-22T10:39:49;27.30;99.90
6164;DHT22;3114;48.362;10.994;2023-06-22T10:42:17;27.30;99.90
6164;DHT22;3114;48.362;10.994;2023-06-22T10:44:43;27.30;99.90
6164;DHT22;3114;48.362;10.994;2023-06-22T10:47:10;27.30;99.90
6164;DHT22;3114;48.362;10.994;2023-06-22T10:49:38;27.40;99.90
6164;DHT22;3114;48.362;10.994;2023-06-22T10:52:06;27.40;99.90
6164;DHT22;3114;48.362;10.994;2023-06-22T10:54:34;27.40;99.90
6164;DHT22;3114;48.362;10.994;2023-06-22T10:57:02;27.40;99.90
6164;DHT22;3114;48.362;10.994;2023-06-22T10:59:29;27.40;99.90
6164;DHT22;3114;48.362;10.994;2023-06-22T11:01:56;27.50;99.90
6164;DHT22;3114;48.362;10.994;2023-06-22T11:04:23;27.50;99.90
6164;DHT22;3114;48.362;10.994;2023-06-22T11:06:50;27.60;99.90
6164;DHT22;3114;48.362;10.994;2023-06-22T11:09:17;27.60;99.90
6164;DHT22;3114;48.362;10.994;2023-06-22T11:11:48;27.60;99.90
6164;DHT22;3114;48.362;10.994;2023-06-22T11:14:18;27.70;99.90
6164;DHT22;3114;48.362;10.994;2023-06-22T11:16:45;28.00;99.90
6164;DHT22;3114;48.362;10.994;2023-06-22T11:19:13;27.80;99.90
6164;DHT22;3114;48.362;10.994;2023-06-22T11:21:40;27.40;99.90
6164;DHT22;3114;48.362;10.994;2023-06-22T11:24:07;27.30;99.90
6164;DHT22;3114;48.362;10.994;2023-06-22T11:26:34;27.20;99.90
6164;DHT22;3114;48.362;10.994;2023-06-22T11:29:02;27.30;99.90
6164;DHT22;3114;48.362;10.994;2023-06-22T11:31:30;27.40;99.90
6164;DHT22;3114;48.362;10.994;2023-06-22T11:33:57;27.50;99.90
6164;DHT22;3114;48.362;10.994;2023-06-22T11:36:25;27.50;99.90
6164;DHT22;3114;48.362;10.994;2023-06-22T11:38:52;27.70;99.90
6164;DHT22;3114;48.362;10.994;2023-06-22T11:41:18;27.80;99.90
6164;DHT22;3114;48.362;10.994;2023-06-22T11:43:45;27.80;99.90
6164;DHT22;3114;48.362;10.994;2023-06-22T11:46:14;28.00;99.90
6164;DHT22;3114;48.362;10.994;2023-06-22T11:48:41;28.20;99.90
6164;DHT22;3114;48.362;10.994;2023-06-22T11:51:08;28.30;99.90
6164;DHT22;3114;48.362;10.994;2023-06-22T11:53:35;28.50;99.90
6164;DHT22;3114;48.362;10.994;2023-06-22T11:56:02;28.40;99.90
6164;DHT22;3114;48.362;10.994;2023-06-22T11:58:28;28.30;99.90
6164;DHT22;3114;48.362;10.994;2023-06-22T12:00:55;28.50;99.90
6164;DHT22;3114;48.362;10.994;2023-06-22T12:03:23;28.40;99.90
6164;DHT22;3114;48.362;10.994;2023-06-22T12:05:50;28.50;99.90
6164;DHT22;3114;48.362;10.994;2023-06-22T12:08:17;28.50;99.90
6164;DHT22;3114;48.362;10.994;2023-06-22T12:10:44;28.50;99.90
6164;DHT22;3114;48.362;10.994;2023-06-22T12:13:11;28.70;99.90
6164;DHT22;3114;48.362;10.994;2023-06-22T12:15:38;28.80;99.90
6164;DHT22;3114;48.362;10.994;2023-06-22T12:18:05;28.70;99.90
6164;DHT22;3114;48.362;10.994;2023-06-22T12:20:33;28.70;99.90
6164;DHT22;3114;48.362;10.994;2023-06-22T12:23:01;28.80;99.90
6164;DHT22;3114;48.362;10.994;2023-06-22T12:25:27;29.00;99.90
6164;DHT22;3114;48.362;10.994;2023-06-22T12:27:54;29.20;99.90
6164;DHT22;3114;48.362;10.994;2023-06-22T12:30:21;29.60;99.90
6164;DHT22;3114;48.362;10.994;2023-06-22T12:32:48;30.00;99.90
6164;DHT22;3114;48.362;10.994;2023-06-22T12:35:16;30.80;99.90
6164;DHT22;3114;48.362;10.994;2023-06-22T12:37:44;32.50;99.90
6164;DHT22;3114;48.362;10.994;2023-06-22T12:40:12;33.50;99.90
6164;DHT22;3114;48.362;10.994;2023-06-22T12:42:39;35.60;99.90
6164;DHT22;3114;48.362;10.994;2023-06-22T12:45:08;37.30;99.90
6164;DHT22;3114;48.362;10.994;2023-06-22T12:47:35;37.90;99.90
6164;DHT22;3114;48.362;10.994;2023-06-22T12:50:01;39.10;99.90
6164;DHT22;3114;48.362;10.994;2023-06-22T12:52:30;39.40;99.90
6164;DHT22;3114;48.362;10.994;2023-06-22T12:54:59;39.70;99.90
6164;DHT22;3114;48.362;10.994;2023-06-22T12:57:26;39.40;99.90
6164;DHT22;3114;48.362;10.994;2023-06-22T12:59:52;39.10;99.90
6164;DHT22;3114;48.362;10.994;2023-06-22T13:02:19;38.40;99.90
6164;DHT22;3114;48.362;10.994;2023-06-22T13:04:46;38.20;99.90
6164;DHT22;3114;48.362;10.994;2023-06-22T13:07:13;38.60;99.90
6164;DHT22;3114;48.362;10.994;2023-06-22T13:09:40;38.60;99.90
6164;DHT22;3114;48.362;10.994;2023-06-22T13:12:09;39.00;99.90
6164;DHT22;3114;48.362;10.994;2023-06-22T13:14:36;40.00;99.90
6164;DHT22;3114;48.362;10.994;2023-06-22T13:17:03;38.90;99.90
6164;DHT22;3114;48.362;10.994;2023-06-22T13:19:30;37.30;99.90
6164;DHT22;3114;48.362;10.994;2023-06-22T13:21:58;36.70;99.90
6164;DHT22;3114;48.362;10.994;2023-06-22T13:24:25;37.70;99.90
6164;DHT22;3114;48.362;10.994;2023-06-22T13:26:52;37.90;99.90
6164;DHT22;3114;48.362;10.994;2023-06-22T13:29:20;37.90;99.90
6164;DHT22;3114;48.362;10.994;2023-06-22T13:31:47;36.80;99.90
6164;DHT22;3114;48.362;10.994;2023-06-22T13:34:14;35.80;99.90
6164;DHT22;3114;48.362;10.994;2023-06-22T13:36:41;35.00;99.90
6164;DHT22;3114;48.362;10.994;2023-06-22T13:39:08;34.50;99.90
6164;DHT22;3114;48.362;10.994;2023-06-22T13:41:34;33.80;99.90
6164;DHT22;3114;48.362;10.994;2023-06-22T13:44:02;33.70;99.90
6164;DHT22;3114;48.362;10.994;2023-06-22T13:46:30;34.70;99.90
6164;DHT22;3114;48.362;10.994;2023-06-22T13:48:57;36.20;99.90
6164;DHT22;3114;48.362;10.994;2023-06-22T13:51:24;37.40;99.90
6164;DHT22;3114;48.362;10.994;2023-06-22T13:53:50;38.40;99.90
6164;DHT22;3114;48.362;10.994;2023-06-22T13:56:17;38.60;99.90
6164;DHT22;3114;48.362;10.994;2023-06-22T13:58:47;38.60;99.90
6164;DHT22;3114;48.362;10.994;2023-06-22T14:01:14;38.00;99.90
6164;DHT22;3114;48.362;10.994;2023-06-22T14:03:42;37.40;99.90
6164;DHT22;3114;48.362;10.994;2023-06-22T14:06:11;36.30;99.90
6164;DHT22;3114;48.362;10.994;2023-06-22T14:08:38;35.00;99.90
6164;DHT22;3114;48.362;10.994;2023-06-22T14:11:04;34.10;99.90
6164;DHT22;3114;48.362;10.994;2023-06-22T14:13:31;33.60;99.90
6164;DHT22;3114;48.362;10.994;2023-06-22T14:15:58;33.40;99.90
6164;DHT22;3114;48.362;10.994;2023-06-22T14:18:25;33.30;99.90
6164;DHT22;3114;48.362;10.994;2023-06-22T14:20:53;33.40;99.90
6164;DHT22;3114;48.362;10.994;2023-06-22T14:23:21;33.40;99.90
6164;DHT22;3114;48.362;10.994;2023-06-22T14:25:47;33.40;99.90
6164;DHT22;3114;48.362;10.994;2023-06-22T14:28:14;33.30;99.90
6164;DHT22;3114;48.362;10.994;2023-06-22T14:30:42;33.30;99.90
6164;DHT22;3114;48.362;10.994;2023-06-22T14:33:09;33.30;99.90
6164;DHT22;3114;48.362;10.994;2023-06-22T14:35:35;33.40;99.90
6164;DHT22;3114;48.362;10.994;2023-06-22T14:38:04;33.40;99.90
6164;DHT22;3114;48.362;10.994;2023-06-22T14:40:30;33.30;99.90
6164;DHT22;3114;48.362;10.994;2023-06-22T14:42:57;33.30;99.90
6164;DHT22;3114;48.362;10.994;2023-06-22T14:45:24;33.30;99.90
6164;DHT22;3114;48.362;10.994;2023-06-22T14:47:51;33.30;99.90
6164;DHT22;3114;48.362;10.994;2023-06-22T14:50:18;32.90;99.90
6164;DHT22;3114;48.362;10.994;2023-06-22T14:52:45;32.90;99.90
6164;DHT22;3114;48.362;10.994;2023-06-22T14:55:14;33.40;99.90
6164;DHT22;3114;48.362;10.994;2023-06-22T14:57:40;33.60;99.90
6164;DHT22;3114;48.362;10.994;2023-06-22T15:00:08;33.80;99.90
6164;DHT22;3114;48.362;10.994;2023-06-22T15:02:35;33.70;99.90
6164;DHT22;3114;48.362;10.994;2023-06-22T15:05:02;33.50;99.90
6164;DHT22;3114;48.362;10.994;2023-06-22T15:07:29;33.50;99.90
6164;DHT22;3114;48.362;10.994;2023-06-22T15:09:56;33.60;99.90
6164;DHT22;3114;48.362;10.994;2023-06-22T15:12:24;33.50;99.90
6164;DHT22;3114;48.362;10.994;2023-06-22T15:14:51;33.60;99.90
6164;DHT22;3114;48.362;10.994;2023-06-22T15:17:18;33.90;99.90
6164;DHT22;3114;48.362;10.994;2023-06-22T15:19:45;34.00;99.90
6164;DHT22;3114;48.362;10.994;2023-06-22T15:22:11;34.00;99.90
6164;DHT22;3114;48.362;10.994;2023-06-22T15:24:41;34.00;99.90
6164;DHT22;3114;48.362;10.994;2023-06-22T15:27:09;33.90;99.90
6164;DHT22;3114;48.362;10.994;2023-06-22T15:29:37;33.60;99.90
6164;DHT22;3114;48.362;10.994;2023-06-22T15:32:05;33.50;99.90
6164;DHT22;3114;48.362;10.994;2023-06-22T15:34:32;33.50;99.90
6164;DHT22;3114;48.362;10.994;2023-06-22T15:36:59;33.30;99.90
6164;DHT22;3114;48.362;10.994;2023-06-22T15:39:26;33.30;99.90
6164;DHT22;3114;48.362;10.994;2023-06-22T15:41:53;33.50;99.90
6164;DHT22;3114;48.362;10.994;2023-06-22T15:44:20;33.50;99.90
6164;DHT22;3114;48.362;10.994;2023-06-22T15:46:49;33.40;99.90